sensor_id;sensor_type;location;lat;lon;timestamp;P1;durP1;ratioP1;P2;durP2;ratioP2
49488;SDS011;35382;51.484;11.476;2023-05-17T00:00:25;5.95;;;2.30;;
49488;SDS011;35382;51.484;11.476;2023-05-17T00:02:05;6.70;;;2.38;;
49488;SDS011;35382;51.484;11.476;2023-05-17T00:03:46;10.35;;;2.30;;
49488;SDS011;35382;51.484;11.476;2023-05-17T00:05:27;6.15;;;2.40;;
49488;SDS011;35382;51.484;11.476;2023-05-17T00:07:08;7.53;;;3.45;;
49488;SDS011;35382;51.484;11.476;2023-05-17T00:08:49;6.55;;;2.80;;
49488;SDS011;35382;51.484;11.476;2023-05-17T00:10:30;6.47;;;2.50;;
49488;SDS011;35382;51.484;11.476;2023-05-17T00:12:11;7.85;;;2.70;;
49488;SDS011;35382;51.484;11.476;2023-05-17T00:13:52;7.82;;;2.35;;
49488;SDS011;35382;51.484;11.476;2023-05-17T00:15:33;7.60;;;2.65;;
49488;SDS011;35382;51.484;11.476;2023-05-17T00:17:14;6.32;;;2.40;;
49488;SDS011;35382;51.484;11.476;2023-05-17T00:18:55;5.65;;;2.67;;
49488;SDS011;35382;51.484;11.476;2023-05-17T00:20:36;6.82;;;2.60;;
49488;SDS011;35382;51.484;11.476;2023-05-17T00:22:17;8.55;;;3.25;;
49488;SDS011;35382;51.484;11.476;2023-05-17T00:23:58;6.88;;;2.50;;
49488;SDS011;35382;51.484;11.476;2023-05-17T00:25:39;9.00;;;2.88;;
49488;SDS011;35382;51.484;11.476;2023-05-17T00:27:22;10.38;;;2.88;;
49488;SDS011;35382;51.484;11.476;2023-05-17T00:29:03;7.50;;;3.03;;
49488;SDS011;35382;51.484;11.476;2023-05-17T00:30:44;7.70;;;2.60;;
49488;SDS011;35382;51.484;11.476;2023-05-17T00:32:25;5.03;;;2.40;;
49488;SDS011;35382;51.484;11.476;2023-05-17T00:34:06;8.45;;;2.72;;
49488;SDS011;35382;51.484;11.476;2023-05-17T00:35:47;8.65;;;2.53;;
49488;SDS011;35382;51.484;11.476;2023-05-17T00:37:28;7.95;;;3.10;;
49488;SDS011;35382;51.484;11.476;2023-05-17T00:39:09;8.48;;;3.10;;
49488;SDS011;35382;51.484;11.476;2023-05-17T00:40:51;8.88;;;3.00;;
49488;SDS011;35382;51.484;11.476;2023-05-17T00:42:33;7.82;;;2.50;;
49488;SDS011;35382;51.484;11.476;2023-05-17T00:44:14;11.05;;;3.92;;
49488;SDS011;35382;51.484;11.476;2023-05-17T00:45:56;11.02;;;3.45;;
49488;SDS011;35382;51.484;11.476;2023-05-17T00:47:38;8.07;;;2.90;;
49488;SDS011;35382;51.484;11.476;2023-05-17T00:49:19;7.32;;;3.13;;
49488;SDS011;35382;51.484;11.476;2023-05-17T00:51:00;7.85;;;3.10;;
49488;SDS011;35382;51.484;11.476;2023-05-17T00:52:41;7.00;;;2.65;;
49488;SDS011;35382;51.484;11.476;2023-05-17T00:54:22;7.43;;;2.40;;
49488;SDS011;35382;51.484;11.476;2023-05-17T00:56:03;8.25;;;2.63;;
49488;SDS011;35382;51.484;11.476;2023-05-17T00:57:46;7.88;;;3.13;;
49488;SDS011;35382;51.484;11.476;2023-05-17T00:59:28;11.20;;;3.97;;
49488;SDS011;35382;51.484;11.476;2023-05-17T01:01:09;9.95;;;3.75;;
49488;SDS011;35382;51.484;11.476;2023-05-17T01:02:50;11.95;;;3.60;;
49488;SDS011;35382;51.484;11.476;2023-05-17T01:04:31;7.22;;;3.40;;
49488;SDS011;35382;51.484;11.476;2023-05-17T01:06:13;7.18;;;3.00;;
49488;SDS011;35382;51.484;11.476;2023-05-17T01:07:54;9.48;;;4.18;;
49488;SDS011;35382;51.484;11.476;2023-05-17T01:09:36;9.18;;;3.42;;
49488;SDS011;35382;51.484;11.476;2023-05-17T01:11:22;7.43;;;2.92;;
49488;SDS011;35382;51.484;11.476;2023-05-17T01:13:24;9.20;;;3.33;;
49488;SDS011;35382;51.484;11.476;2023-05-17T01:15:27;9.18;;;3.53;;
49488;SDS011;35382;51.484;11.476;2023-05-17T01:21:11;7.38;;;2.95;;
49488;SDS011;35382;51.484;11.476;2023-05-17T01:25:29;8.98;;;3.20;;
49488;SDS011;35382;51.484;11.476;2023-05-17T01:27:32;8.93;;;3.95;;
49488;SDS011;35382;51.484;11.476;2023-05-17T01:29:15;6.80;;;3.15;;
49488;SDS011;35382;51.484;11.476;2023-05-17T01:31:00;10.98;;;3.63;;
49488;SDS011;35382;51.484;11.476;2023-05-17T01:32:43;12.32;;;4.10;;
49488;SDS011;35382;51.484;11.476;2023-05-17T01:34:26;8.68;;;3.17;;
49488;SDS011;35382;51.484;11.476;2023-05-17T01:36:07;9.02;;;3.17;;
49488;SDS011;35382;51.484;11.476;2023-05-17T01:37:49;8.27;;;3.40;;
49488;SDS011;35382;51.484;11.476;2023-05-17T01:39:32;7.78;;;3.20;;
49488;SDS011;35382;51.484;11.476;2023-05-17T01:41:14;8.43;;;3.17;;
49488;SDS011;35382;51.484;11.476;2023-05-17T01:43:09;9.80;;;3.47;;
49488;SDS011;35382;51.484;11.476;2023-05-17T01:47:12;5.38;;;2.53;;
49488;SDS011;35382;51.484;11.476;2023-05-17T01:50:50;7.88;;;3.35;;
49488;SDS011;35382;51.484;11.476;2023-05-17T01:52:37;7.63;;;3.20;;
49488;SDS011;35382;51.484;11.476;2023-05-17T01:54:45;10.02;;;3.22;;
49488;SDS011;35382;51.484;11.476;2023-05-17T01:56:43;8.70;;;3.20;;
49488;SDS011;35382;51.484;11.476;2023-05-17T01:58:28;7.85;;;3.28;;
49488;SDS011;35382;51.484;11.476;2023-05-17T02:00:10;8.38;;;3.33;;
49488;SDS011;35382;51.484;11.476;2023-05-17T02:01:56;10.95;;;3.28;;
49488;SDS011;35382;51.484;11.476;2023-05-17T02:03:49;8.10;;;3.17;;
49488;SDS011;35382;51.484;11.476;2023-05-17T02:05:31;9.98;;;3.40;;
49488;SDS011;35382;51.484;11.476;2023-05-17T02:07:12;6.03;;;2.97;;
49488;SDS011;35382;51.484;11.476;2023-05-17T02:08:53;8.68;;;3.22;;
49488;SDS011;35382;51.484;11.476;2023-05-17T02:10:34;11.68;;;3.22;;
49488;SDS011;35382;51.484;11.476;2023-05-17T02:12:15;7.78;;;3.30;;
49488;SDS011;35382;51.484;11.476;2023-05-17T02:13:55;7.05;;;3.00;;
49488;SDS011;35382;51.484;11.476;2023-05-17T02:15:38;9.38;;;3.47;;
49488;SDS011;35382;51.484;11.476;2023-05-17T02:17:20;7.03;;;3.10;;
49488;SDS011;35382;51.484;11.476;2023-05-17T02:19:00;7.55;;;3.08;;
49488;SDS011;35382;51.484;11.476;2023-05-17T02:20:41;7.63;;;3.08;;
49488;SDS011;35382;51.484;11.476;2023-05-17T02:22:22;7.40;;;3.50;;
49488;SDS011;35382;51.484;11.476;2023-05-17T02:24:03;9.77;;;3.75;;
49488;SDS011;35382;51.484;11.476;2023-05-17T02:25:45;8.20;;;3.47;;
49488;SDS011;35382;51.484;11.476;2023-05-17T02:27:26;8.30;;;3.38;;
49488;SDS011;35382;51.484;11.476;2023-05-17T02:29:07;7.82;;;3.75;;
49488;SDS011;35382;51.484;11.476;2023-05-17T02:30:50;8.45;;;3.15;;
49488;SDS011;35382;51.484;11.476;2023-05-17T02:32:32;7.50;;;2.95;;
49488;SDS011;35382;51.484;11.476;2023-05-17T02:34:13;10.90;;;3.25;;
49488;SDS011;35382;51.484;11.476;2023-05-17T02:35:54;8.43;;;3.47;;
49488;SDS011;35382;51.484;11.476;2023-05-17T02:37:35;10.45;;;3.72;;
49488;SDS011;35382;51.484;11.476;2023-05-17T02:39:16;9.05;;;3.50;;
49488;SDS011;35382;51.484;11.476;2023-05-17T02:40:57;10.70;;;3.65;;
49488;SDS011;35382;51.484;11.476;2023-05-17T02:42:38;7.70;;;3.25;;
49488;SDS011;35382;51.484;11.476;2023-05-17T02:44:20;9.25;;;3.90;;
49488;SDS011;35382;51.484;11.476;2023-05-17T02:46:01;8.35;;;3.88;;
49488;SDS011;35382;51.484;11.476;2023-05-17T02:47:42;8.32;;;3.35;;
49488;SDS011;35382;51.484;11.476;2023-05-17T02:49:23;8.45;;;3.78;;
49488;SDS011;35382;51.484;11.476;2023-05-17T02:51:04;12.68;;;3.60;;
49488;SDS011;35382;51.484;11.476;2023-05-17T02:52:45;10.38;;;4.03;;
49488;SDS011;35382;51.484;11.476;2023-05-17T02:54:26;6.70;;;3.20;;
49488;SDS011;35382;51.484;11.476;2023-05-17T02:56:07;7.95;;;3.17;;
49488;SDS011;35382;51.484;11.476;2023-05-17T02:57:50;8.18;;;3.28;;
49488;SDS011;35382;51.484;11.476;2023-05-17T02:59:31;9.25;;;3.25;;
49488;SDS011;35382;51.484;11.476;2023-05-17T03:01:12;9.48;;;3.15;;
49488;SDS011;35382;51.484;11.476;2023-05-17T03:02:53;9.25;;;3.20;;
49488;SDS011;35382;51.484;11.476;2023-05-17T03:04:34;12.15;;;3.58;;
49488;SDS011;35382;51.484;11.476;2023-05-17T03:06:15;8.38;;;3.28;;
49488;SDS011;35382;51.484;11.476;2023-05-17T03:07:56;9.10;;;3.60;;
49488;SDS011;35382;51.484;11.476;2023-05-17T03:09:37;8.52;;;3.63;;
49488;SDS011;35382;51.484;11.476;2023-05-17T03:11:19;9.63;;;3.55;;
49488;SDS011;35382;51.484;11.476;2023-05-17T03:13:00;11.48;;;5.32;;
49488;SDS011;35382;51.484;11.476;2023-05-17T03:14:45;10.20;;;4.68;;
49488;SDS011;35382;51.484;11.476;2023-05-17T03:16:26;11.77;;;4.13;;
49488;SDS011;35382;51.484;11.476;2023-05-17T03:18:07;9.57;;;3.70;;
49488;SDS011;35382;51.484;11.476;2023-05-17T03:19:49;9.05;;;3.88;;
49488;SDS011;35382;51.484;11.476;2023-05-17T03:21:31;11.93;;;4.10;;
49488;SDS011;35382;51.484;11.476;2023-05-17T03:23:12;9.00;;;3.72;;
49488;SDS011;35382;51.484;11.476;2023-05-17T03:25:03;10.68;;;3.70;;
49488;SDS011;35382;51.484;11.476;2023-05-17T03:26:46;12.88;;;3.78;;
49488;SDS011;35382;51.484;11.476;2023-05-17T03:28:28;11.43;;;3.80;;
49488;SDS011;35382;51.484;11.476;2023-05-17T03:30:09;14.45;;;4.32;;
49488;SDS011;35382;51.484;11.476;2023-05-17T03:31:50;10.30;;;4.00;;
49488;SDS011;35382;51.484;11.476;2023-05-17T03:33:31;11.40;;;4.35;;
49488;SDS011;35382;51.484;11.476;2023-05-17T03:35:13;10.23;;;3.90;;
49488;SDS011;35382;51.484;11.476;2023-05-17T03:36:56;11.70;;;4.32;;
49488;SDS011;35382;51.484;11.476;2023-05-17T03:38:37;10.45;;;3.90;;
49488;SDS011;35382;51.484;11.476;2023-05-17T03:40:19;8.73;;;3.65;;
49488;SDS011;35382;51.484;11.476;2023-05-17T03:42:00;11.23;;;4.20;;
49488;SDS011;35382;51.484;11.476;2023-05-17T03:43:42;9.20;;;3.60;;
49488;SDS011;35382;51.484;11.476;2023-05-17T03:45:26;9.68;;;3.83;;
49488;SDS011;35382;51.484;11.476;2023-05-17T03:47:07;7.72;;;3.75;;
49488;SDS011;35382;51.484;11.476;2023-05-17T03:48:49;8.63;;;3.75;;
49488;SDS011;35382;51.484;11.476;2023-05-17T03:50:31;8.55;;;3.65;;
49488;SDS011;35382;51.484;11.476;2023-05-17T03:52:12;11.65;;;3.97;;
49488;SDS011;35382;51.484;11.476;2023-05-17T03:53:56;9.05;;;3.47;;
49488;SDS011;35382;51.484;11.476;2023-05-17T03:55:39;8.63;;;3.97;;
49488;SDS011;35382;51.484;11.476;2023-05-17T03:57:21;11.60;;;4.68;;
49488;SDS011;35382;51.484;11.476;2023-05-17T03:59:02;10.07;;;4.63;;
49488;SDS011;35382;51.484;11.476;2023-05-17T04:00:44;10.27;;;4.30;;
49488;SDS011;35382;51.484;11.476;2023-05-17T04:02:29;14.35;;;4.20;;
49488;SDS011;35382;51.484;11.476;2023-05-17T04:04:10;10.02;;;4.22;;
49488;SDS011;35382;51.484;11.476;2023-05-17T04:05:52;9.73;;;4.25;;
49488;SDS011;35382;51.484;11.476;2023-05-17T04:07:33;10.63;;;4.32;;
49488;SDS011;35382;51.484;11.476;2023-05-17T04:09:14;9.98;;;4.40;;
49488;SDS011;35382;51.484;11.476;2023-05-17T04:10:55;9.18;;;4.32;;
49488;SDS011;35382;51.484;11.476;2023-05-17T04:12:36;9.68;;;4.00;;
49488;SDS011;35382;51.484;11.476;2023-05-17T04:14:17;10.35;;;4.18;;
49488;SDS011;35382;51.484;11.476;2023-05-17T04:15:59;8.98;;;4.03;;
49488;SDS011;35382;51.484;11.476;2023-05-17T04:17:40;12.20;;;3.88;;
49488;SDS011;35382;51.484;11.476;2023-05-17T04:19:22;9.65;;;4.30;;
49488;SDS011;35382;51.484;11.476;2023-05-17T04:21:04;10.23;;;4.78;;
49488;SDS011;35382;51.484;11.476;2023-05-17T04:22:47;8.60;;;4.03;;
49488;SDS011;35382;51.484;11.476;2023-05-17T04:24:28;10.52;;;5.60;;
49488;SDS011;35382;51.484;11.476;2023-05-17T04:26:11;8.48;;;4.07;;
49488;SDS011;35382;51.484;11.476;2023-05-17T04:27:53;10.32;;;4.38;;
49488;SDS011;35382;51.484;11.476;2023-05-17T04:29:34;10.68;;;4.65;;
49488;SDS011;35382;51.484;11.476;2023-05-17T04:31:15;10.02;;;4.32;;
49488;SDS011;35382;51.484;11.476;2023-05-17T04:32:57;8.73;;;4.05;;
49488;SDS011;35382;51.484;11.476;2023-05-17T04:34:41;9.32;;;4.22;;
49488;SDS011;35382;51.484;11.476;2023-05-17T04:36:23;10.20;;;4.85;;
49488;SDS011;35382;51.484;11.476;2023-05-17T04:38:05;8.23;;;4.30;;
49488;SDS011;35382;51.484;11.476;2023-05-17T04:39:46;11.43;;;4.50;;
49488;SDS011;35382;51.484;11.476;2023-05-17T04:41:28;10.05;;;4.43;;
49488;SDS011;35382;51.484;11.476;2023-05-17T04:43:09;8.13;;;4.10;;
49488;SDS011;35382;51.484;11.476;2023-05-17T04:44:51;11.57;;;4.30;;
49488;SDS011;35382;51.484;11.476;2023-05-17T04:46:32;9.38;;;3.80;;
49488;SDS011;35382;51.484;11.476;2023-05-17T04:48:13;7.50;;;3.20;;
49488;SDS011;35382;51.484;11.476;2023-05-17T04:49:55;6.57;;;3.20;;
49488;SDS011;35382;51.484;11.476;2023-05-17T04:51:38;11.25;;;3.50;;
49488;SDS011;35382;51.484;11.476;2023-05-17T04:53:20;8.48;;;3.35;;
49488;SDS011;35382;51.484;11.476;2023-05-17T04:55:02;8.73;;;3.35;;
49488;SDS011;35382;51.484;11.476;2023-05-17T04:56:44;9.57;;;3.50;;
49488;SDS011;35382;51.484;11.476;2023-05-17T04:58:30;7.85;;;4.10;;
49488;SDS011;35382;51.484;11.476;2023-05-17T05:00:13;10.20;;;3.60;;
49488;SDS011;35382;51.484;11.476;2023-05-17T05:01:57;8.50;;;3.80;;
49488;SDS011;35382;51.484;11.476;2023-05-17T05:03:38;9.38;;;3.72;;
49488;SDS011;35382;51.484;11.476;2023-05-17T05:05:21;9.57;;;3.58;;
49488;SDS011;35382;51.484;11.476;2023-05-17T05:07:04;7.03;;;3.33;;
49488;SDS011;35382;51.484;11.476;2023-05-17T05:08:45;10.45;;;4.40;;
49488;SDS011;35382;51.484;11.476;2023-05-17T05:10:27;9.60;;;4.15;;
49488;SDS011;35382;51.484;11.476;2023-05-17T05:12:10;9.55;;;4.20;;
49488;SDS011;35382;51.484;11.476;2023-05-17T05:13:52;10.70;;;4.30;;
49488;SDS011;35382;51.484;11.476;2023-05-17T05:15:32;7.28;;;3.38;;
49488;SDS011;35382;51.484;11.476;2023-05-17T05:17:14;10.40;;;4.55;;
49488;SDS011;35382;51.484;11.476;2023-05-17T05:18:55;8.30;;;3.70;;
49488;SDS011;35382;51.484;11.476;2023-05-17T05:20:37;9.27;;;4.32;;
49488;SDS011;35382;51.484;11.476;2023-05-17T05:22:19;10.00;;;4.25;;
49488;SDS011;35382;51.484;11.476;2023-05-17T05:24:00;10.57;;;4.43;;
49488;SDS011;35382;51.484;11.476;2023-05-17T05:25:42;8.65;;;3.78;;
49488;SDS011;35382;51.484;11.476;2023-05-17T05:27:24;8.02;;;3.95;;
49488;SDS011;35382;51.484;11.476;2023-05-17T05:29:05;12.60;;;4.25;;
49488;SDS011;35382;51.484;11.476;2023-05-17T05:30:46;10.77;;;3.72;;
49488;SDS011;35382;51.484;11.476;2023-05-17T05:32:33;8.32;;;3.40;;
49488;SDS011;35382;51.484;11.476;2023-05-17T05:34:16;10.02;;;3.80;;
49488;SDS011;35382;51.484;11.476;2023-05-17T05:35:59;6.50;;;3.75;;
49488;SDS011;35382;51.484;11.476;2023-05-17T05:37:41;10.27;;;3.83;;
49488;SDS011;35382;51.484;11.476;2023-05-17T05:39:24;10.27;;;4.15;;
49488;SDS011;35382;51.484;11.476;2023-05-17T05:41:07;9.25;;;4.05;;
49488;SDS011;35382;51.484;11.476;2023-05-17T05:42:55;7.57;;;3.88;;
49488;SDS011;35382;51.484;11.476;2023-05-17T05:44:37;7.97;;;4.03;;
49488;SDS011;35382;51.484;11.476;2023-05-17T05:46:18;7.57;;;3.42;;
49488;SDS011;35382;51.484;11.476;2023-05-17T05:47:59;11.07;;;3.90;;
49488;SDS011;35382;51.484;11.476;2023-05-17T05:49:41;12.50;;;4.15;;
49488;SDS011;35382;51.484;11.476;2023-05-17T05:51:22;8.30;;;4.43;;
49488;SDS011;35382;51.484;11.476;2023-05-17T05:53:05;11.52;;;4.60;;
49488;SDS011;35382;51.484;11.476;2023-05-17T05:54:46;12.60;;;5.05;;
49488;SDS011;35382;51.484;11.476;2023-05-17T05:56:27;10.32;;;4.55;;
49488;SDS011;35382;51.484;11.476;2023-05-17T05:58:08;11.15;;;4.35;;
49488;SDS011;35382;51.484;11.476;2023-05-17T05:59:51;7.43;;;4.20;;
49488;SDS011;35382;51.484;11.476;2023-05-17T06:01:36;10.07;;;4.53;;
49488;SDS011;35382;51.484;11.476;2023-05-17T06:03:18;11.45;;;4.45;;
49488;SDS011;35382;51.484;11.476;2023-05-17T06:04:59;12.65;;;5.07;;
49488;SDS011;35382;51.484;11.476;2023-05-17T06:06:40;9.90;;;4.45;;
49488;SDS011;35382;51.484;11.476;2023-05-17T06:08:21;12.63;;;4.78;;
49488;SDS011;35382;51.484;11.476;2023-05-17T06:10:03;10.38;;;4.68;;
49488;SDS011;35382;51.484;11.476;2023-05-17T06:11:44;10.18;;;4.88;;
49488;SDS011;35382;51.484;11.476;2023-05-17T06:13:28;13.20;;;4.65;;
49488;SDS011;35382;51.484;11.476;2023-05-17T06:15:09;10.35;;;4.70;;
49488;SDS011;35382;51.484;11.476;2023-05-17T06:16:51;11.88;;;5.10;;
49488;SDS011;35382;51.484;11.476;2023-05-17T06:18:35;12.15;;;4.82;;
49488;SDS011;35382;51.484;11.476;2023-05-17T06:20:24;12.23;;;4.43;;
49488;SDS011;35382;51.484;11.476;2023-05-17T06:22:05;10.77;;;4.75;;
49488;SDS011;35382;51.484;11.476;2023-05-17T06:23:46;11.30;;;4.10;;
49488;SDS011;35382;51.484;11.476;2023-05-17T06:25:26;12.40;;;5.07;;
49488;SDS011;35382;51.484;11.476;2023-05-17T06:27:09;12.77;;;4.57;;
49488;SDS011;35382;51.484;11.476;2023-05-17T06:28:50;13.52;;;4.57;;
49488;SDS011;35382;51.484;11.476;2023-05-17T06:30:33;11.70;;;4.60;;
49488;SDS011;35382;51.484;11.476;2023-05-17T06:32:21;13.98;;;4.65;;
49488;SDS011;35382;51.484;11.476;2023-05-17T06:34:03;11.60;;;4.95;;
49488;SDS011;35382;51.484;11.476;2023-05-17T06:35:44;14.35;;;4.72;;
49488;SDS011;35382;51.484;11.476;2023-05-17T06:37:25;18.98;;;4.57;;
49488;SDS011;35382;51.484;11.476;2023-05-17T06:39:08;12.18;;;4.40;;
49488;SDS011;35382;51.484;11.476;2023-05-17T06:40:52;15.68;;;4.50;;
49488;SDS011;35382;51.484;11.476;2023-05-17T06:42:35;11.70;;;5.07;;
49488;SDS011;35382;51.484;11.476;2023-05-17T06:44:16;12.98;;;5.22;;
49488;SDS011;35382;51.484;11.476;2023-05-17T06:45:57;12.73;;;4.88;;
49488;SDS011;35382;51.484;11.476;2023-05-17T06:47:38;14.95;;;4.80;;
49488;SDS011;35382;51.484;11.476;2023-05-17T06:49:19;12.10;;;4.28;;
49488;SDS011;35382;51.484;11.476;2023-05-17T06:51:04;15.25;;;5.07;;
49488;SDS011;35382;51.484;11.476;2023-05-17T06:52:47;12.85;;;4.93;;
49488;SDS011;35382;51.484;11.476;2023-05-17T06:54:28;11.05;;;4.80;;
49488;SDS011;35382;51.484;11.476;2023-05-17T06:56:12;14.20;;;5.65;;
49488;SDS011;35382;51.484;11.476;2023-05-17T06:57:54;15.93;;;6.55;;
49488;SDS011;35382;51.484;11.476;2023-05-17T06:59:35;13.50;;;5.30;;
49488;SDS011;35382;51.484;11.476;2023-05-17T07:01:18;18.17;;;5.82;;
49488;SDS011;35382;51.484;11.476;2023-05-17T07:03:02;17.52;;;5.20;;
49488;SDS011;35382;51.484;11.476;2023-05-17T07:04:43;15.63;;;5.93;;
49488;SDS011;35382;51.484;11.476;2023-05-17T07:06:23;10.82;;;4.88;;
49488;SDS011;35382;51.484;11.476;2023-05-17T07:08:07;10.25;;;5.30;;
49488;SDS011;35382;51.484;11.476;2023-05-17T07:09:48;13.90;;;5.63;;
49488;SDS011;35382;51.484;11.476;2023-05-17T07:11:30;12.80;;;4.93;;
49488;SDS011;35382;51.484;11.476;2023-05-17T07:13:23;12.15;;;5.80;;
49488;SDS011;35382;51.484;11.476;2023-05-17T07:15:10;14.35;;;4.97;;
49488;SDS011;35382;51.484;11.476;2023-05-17T07:16:52;13.40;;;6.53;;
49488;SDS011;35382;51.484;11.476;2023-05-17T07:18:33;13.43;;;5.07;;
49488;SDS011;35382;51.484;11.476;2023-05-17T07:20:17;15.95;;;4.85;;
49488;SDS011;35382;51.484;11.476;2023-05-17T07:22:02;11.57;;;4.70;;
49488;SDS011;35382;51.484;11.476;2023-05-17T07:23:45;13.77;;;5.53;;
49488;SDS011;35382;51.484;11.476;2023-05-17T07:25:28;14.52;;;4.70;;
49488;SDS011;35382;51.484;11.476;2023-05-17T07:27:11;12.63;;;5.05;;
49488;SDS011;35382;51.484;11.476;2023-05-17T07:28:52;14.55;;;4.70;;
49488;SDS011;35382;51.484;11.476;2023-05-17T07:30:33;13.68;;;6.03;;
49488;SDS011;35382;51.484;11.476;2023-05-17T07:32:14;13.75;;;5.60;;
49488;SDS011;35382;51.484;11.476;2023-05-17T07:33:57;15.45;;;5.53;;
49488;SDS011;35382;51.484;11.476;2023-05-17T07:35:38;13.77;;;5.05;;
49488;SDS011;35382;51.484;11.476;2023-05-17T07:37:19;14.73;;;5.72;;
49488;SDS011;35382;51.484;11.476;2023-05-17T07:39:00;15.65;;;5.38;;
49488;SDS011;35382;51.484;11.476;2023-05-17T07:40:41;15.65;;;5.65;;
49488;SDS011;35382;51.484;11.476;2023-05-17T07:42:22;18.88;;;6.38;;
49488;SDS011;35382;51.484;11.476;2023-05-17T07:44:03;16.10;;;6.05;;
49488;SDS011;35382;51.484;11.476;2023-05-17T07:45:44;18.20;;;5.75;;
49488;SDS011;35382;51.484;11.476;2023-05-17T07:47:25;15.63;;;6.32;;
49488;SDS011;35382;51.484;11.476;2023-05-17T07:49:06;14.23;;;6.10;;
49488;SDS011;35382;51.484;11.476;2023-05-17T07:50:47;17.52;;;6.05;;
49488;SDS011;35382;51.484;11.476;2023-05-17T07:52:29;13.40;;;5.70;;
49488;SDS011;35382;51.484;11.476;2023-05-17T07:54:24;11.68;;;4.90;;
49488;SDS011;35382;51.484;11.476;2023-05-17T07:56:08;14.40;;;5.35;;
49488;SDS011;35382;51.484;11.476;2023-05-17T07:57:51;10.77;;;5.35;;
49488;SDS011;35382;51.484;11.476;2023-05-17T07:59:32;9.82;;;4.75;;
49488;SDS011;35382;51.484;11.476;2023-05-17T08:01:15;9.38;;;4.32;;
49488;SDS011;35382;51.484;11.476;2023-05-17T08:02:58;12.73;;;4.10;;
49488;SDS011;35382;51.484;11.476;2023-05-17T08:04:39;10.48;;;4.00;;
49488;SDS011;35382;51.484;11.476;2023-05-17T08:06:21;13.50;;;3.90;;
49488;SDS011;35382;51.484;11.476;2023-05-17T08:08:05;14.90;;;3.80;;
49488;SDS011;35382;51.484;11.476;2023-05-17T08:09:46;10.30;;;3.60;;
49488;SDS011;35382;51.484;11.476;2023-05-17T08:11:27;10.00;;;4.07;;
49488;SDS011;35382;51.484;11.476;2023-05-17T08:13:08;12.45;;;4.43;;
49488;SDS011;35382;51.484;11.476;2023-05-17T08:14:50;11.82;;;3.97;;
49488;SDS011;35382;51.484;11.476;2023-05-17T08:16:33;10.73;;;3.53;;
49488;SDS011;35382;51.484;11.476;2023-05-17T08:18:14;10.32;;;3.40;;
49488;SDS011;35382;51.484;11.476;2023-05-17T08:19:55;10.50;;;3.10;;
49488;SDS011;35382;51.484;11.476;2023-05-17T08:21:36;11.45;;;3.58;;
49488;SDS011;35382;51.484;11.476;2023-05-17T08:23:17;8.75;;;3.00;;
49488;SDS011;35382;51.484;11.476;2023-05-17T08:24:58;14.98;;;3.58;;
49488;SDS011;35382;51.484;11.476;2023-05-17T08:26:39;10.70;;;2.92;;
49488;SDS011;35382;51.484;11.476;2023-05-17T08:28:21;12.93;;;3.47;;
49488;SDS011;35382;51.484;11.476;2023-05-17T08:30:03;9.30;;;2.80;;
49488;SDS011;35382;51.484;11.476;2023-05-17T08:31:45;14.50;;;3.65;;
49488;SDS011;35382;51.484;11.476;2023-05-17T08:33:27;13.55;;;3.53;;
49488;SDS011;35382;51.484;11.476;2023-05-17T08:35:08;11.38;;;3.83;;
49488;SDS011;35382;51.484;11.476;2023-05-17T08:36:50;10.35;;;3.08;;
49488;SDS011;35382;51.484;11.476;2023-05-17T08:38:33;15.10;;;3.70;;
49488;SDS011;35382;51.484;11.476;2023-05-17T08:40:16;11.13;;;3.15;;
49488;SDS011;35382;51.484;11.476;2023-05-17T08:41:59;9.45;;;3.50;;
49488;SDS011;35382;51.484;11.476;2023-05-17T08:43:42;14.38;;;3.88;;
49488;SDS011;35382;51.484;11.476;2023-05-17T08:45:24;9.38;;;3.30;;
49488;SDS011;35382;51.484;11.476;2023-05-17T08:47:06;13.88;;;3.90;;
49488;SDS011;35382;51.484;11.476;2023-05-17T08:48:51;9.90;;;3.60;;
49488;SDS011;35382;51.484;11.476;2023-05-17T08:50:35;9.93;;;4.20;;
49488;SDS011;35382;51.484;11.476;2023-05-17T08:52:17;7.32;;;3.13;;
49488;SDS011;35382;51.484;11.476;2023-05-17T08:53:58;13.52;;;3.50;;
49488;SDS011;35382;51.484;11.476;2023-05-17T08:55:41;10.23;;;3.13;;
49488;SDS011;35382;51.484;11.476;2023-05-17T08:57:29;12.70;;;3.75;;
49488;SDS011;35382;51.484;11.476;2023-05-17T08:59:11;10.15;;;3.65;;
49488;SDS011;35382;51.484;11.476;2023-05-17T09:00:55;11.25;;;3.83;;
49488;SDS011;35382;51.484;11.476;2023-05-17T09:02:38;10.60;;;3.70;;
49488;SDS011;35382;51.484;11.476;2023-05-17T09:04:22;12.82;;;4.18;;
49488;SDS011;35382;51.484;11.476;2023-05-17T09:06:04;11.27;;;4.30;;
49488;SDS011;35382;51.484;11.476;2023-05-17T09:07:48;12.13;;;4.20;;
49488;SDS011;35382;51.484;11.476;2023-05-17T09:09:29;9.60;;;3.30;;
49488;SDS011;35382;51.484;11.476;2023-05-17T09:11:11;13.93;;;3.80;;
49488;SDS011;35382;51.484;11.476;2023-05-17T09:12:52;11.93;;;3.53;;
49488;SDS011;35382;51.484;11.476;2023-05-17T09:14:33;9.90;;;2.90;;
49488;SDS011;35382;51.484;11.476;2023-05-17T09:16:23;10.30;;;3.50;;
49488;SDS011;35382;51.484;11.476;2023-05-17T09:18:06;10.00;;;3.75;;
49488;SDS011;35382;51.484;11.476;2023-05-17T09:19:50;10.80;;;3.92;;
49488;SDS011;35382;51.484;11.476;2023-05-17T09:21:35;11.65;;;4.00;;
49488;SDS011;35382;51.484;11.476;2023-05-17T09:23:17;9.45;;;3.58;;
49488;SDS011;35382;51.484;11.476;2023-05-17T09:25:01;11.55;;;3.45;;
49488;SDS011;35382;51.484;11.476;2023-05-17T09:26:47;10.50;;;3.55;;
49488;SDS011;35382;51.484;11.476;2023-05-17T09:28:35;11.02;;;3.22;;
49488;SDS011;35382;51.484;11.476;2023-05-17T09:30:25;10.35;;;3.83;;
49488;SDS011;35382;51.484;11.476;2023-05-17T09:32:14;10.52;;;2.72;;
49488;SDS011;35382;51.484;11.476;2023-05-17T09:33:57;11.52;;;3.22;;
49488;SDS011;35382;51.484;11.476;2023-05-17T09:35:38;10.25;;;3.03;;
49488;SDS011;35382;51.484;11.476;2023-05-17T09:37:23;15.65;;;3.33;;
49488;SDS011;35382;51.484;11.476;2023-05-17T09:39:06;8.60;;;2.80;;
49488;SDS011;35382;51.484;11.476;2023-05-17T09:40:51;10.75;;;3.20;;
49488;SDS011;35382;51.484;11.476;2023-05-17T09:42:36;7.90;;;2.70;;
49488;SDS011;35382;51.484;11.476;2023-05-17T09:44:18;11.13;;;2.95;;
49488;SDS011;35382;51.484;11.476;2023-05-17T09:45:59;12.18;;;2.85;;
49488;SDS011;35382;51.484;11.476;2023-05-17T09:47:44;12.35;;;2.63;;
49488;SDS011;35382;51.484;11.476;2023-05-17T09:49:25;11.77;;;2.47;;
49488;SDS011;35382;51.484;11.476;2023-05-17T09:51:09;9.75;;;2.40;;
49488;SDS011;35382;51.484;11.476;2023-05-17T09:52:50;8.48;;;2.60;;
49488;SDS011;35382;51.484;11.476;2023-05-17T09:54:36;10.02;;;2.50;;
49488;SDS011;35382;51.484;11.476;2023-05-17T09:56:17;12.05;;;2.55;;
49488;SDS011;35382;51.484;11.476;2023-05-17T09:58:02;11.27;;;2.60;;
49488;SDS011;35382;51.484;11.476;2023-05-17T09:59:43;9.55;;;1.80;;
49488;SDS011;35382;51.484;11.476;2023-05-17T10:01:26;12.30;;;3.28;;
49488;SDS011;35382;51.484;11.476;2023-05-17T10:03:09;9.23;;;2.45;;
49488;SDS011;35382;51.484;11.476;2023-05-17T10:04:55;9.05;;;2.75;;
49488;SDS011;35382;51.484;11.476;2023-05-17T10:06:39;8.27;;;2.70;;
49488;SDS011;35382;51.484;11.476;2023-05-17T10:08:21;8.60;;;2.53;;
49488;SDS011;35382;51.484;11.476;2023-05-17T10:10:07;9.13;;;2.72;;
49488;SDS011;35382;51.484;11.476;2023-05-17T10:11:53;7.38;;;2.20;;
49488;SDS011;35382;51.484;11.476;2023-05-17T10:15:57;10.13;;;2.55;;
49488;SDS011;35382;51.484;11.476;2023-05-17T10:17:40;12.48;;;2.72;;